sensor_id;sensor_type;location;lat;lon;timestamp;pressure;altitude;pressure_sealevel;temperature;humidity
39083;BME280;24834;44.444;26.098;2023-09-18T04:06:40;101291.84;;;18.45;
39083;BME280;24834;44.444;26.098;2023-09-18T05:00:10;101308.47;;;18.76;
39083;BME280;24834;44.444;26.098;2023-09-18T05:06:21;101316.63;;;18.89;
39083;BME280;24834;44.444;26.098;2023-09-18T05:12:24;101310.84;;;18.95;
39083;BME280;24834;44.444;26.098;2023-09-18T05:18:26;101316.63;;;19.14;
39083;BME280;24834;44.444;26.098;2023-09-18T05:24:29;101319.41;;;19.26;
39083;BME280;24834;44.444;26.098;2023-09-18T05:30:33;101316.22;;;19.41;
39083;BME280;24834;44.444;26.098;2023-09-18T05:36:40;101309.91;;;19.55;
39083;BME280;24834;44.444;26.098;2023-09-18T05:42:43;101306.44;;;19.71;
39083;BME280;24834;44.444;26.098;2023-09-18T05:48:47;101312.00;;;19.78;
39083;BME280;24834;44.444;26.098;2023-09-18T05:54:49;101318.56;;;19.89;
39083;BME280;24834;44.444;26.098;2023-09-18T06:00:53;101322.44;;;20.00;
39083;BME280;24834;44.444;26.098;2023-09-18T06:06:55;101328.13;;;20.20;
39083;BME280;24834;44.444;26.098;2023-09-18T06:12:59;101336.28;;;20.44;
39083;BME280;24834;44.444;26.098;2023-09-18T06:19:07;101331.88;;;20.68;
39083;BME280;24834;44.444;26.098;2023-09-18T06:25:10;101333.00;;;21.00;
39083;BME280;24834;44.444;26.098;2023-09-18T06:31:12;101329.31;;;21.37;
39083;BME280;24834;44.444;26.098;2023-09-18T06:37:14;101328.75;;;21.44;
39083;BME280;24834;44.444;26.098;2023-09-18T06:43:17;101338.59;;;21.64;
39083;BME280;24834;44.444;26.098;2023-09-18T06:49:20;101338.22;;;22.02;
39083;BME280;24834;44.444;26.098;2023-09-18T06:55:23;101327.47;;;22.26;
39083;BME280;24834;44.444;26.098;2023-09-18T07:01:25;101339.13;;;22.46;
39083;BME280;24834;44.444;26.098;2023-09-18T07:07:29;101334.91;;;22.72;
39083;BME280;24834;44.444;26.098;2023-09-18T07:13:32;101330.91;;;23.10;
39083;BME280;24834;44.444;26.098;2023-09-18T07:19:36;101335.66;;;23.32;
39083;BME280;24834;44.444;26.098;2023-09-18T07:25:38;101349.22;;;23.70;
39083;BME280;24834;44.444;26.098;2023-09-18T07:31:42;101344.47;;;23.98;
39083;BME280;24834;44.444;26.098;2023-09-18T07:37:45;101344.34;;;24.30;
39083;BME280;24834;44.444;26.098;2023-09-18T07:43:48;101350.44;;;24.46;
39083;BME280;24834;44.444;26.098;2023-09-18T07:49:56;101348.00;;;24.79;
39083;BME280;24834;44.444;26.098;2023-09-18T07:55:59;101334.41;;;24.72;
39083;BME280;24834;44.444;26.098;2023-09-18T08:02:07;101344.22;;;25.06;
39083;BME280;24834;44.444;26.098;2023-09-18T08:08:11;101336.44;;;25.24;
39083;BME280;24834;44.444;26.098;2023-09-18T08:14:16;101333.91;;;25.08;
39083;BME280;24834;44.444;26.098;2023-09-18T08:20:22;101324.81;;;25.68;
39083;BME280;24834;44.444;26.098;2023-09-18T08:26:25;101317.16;;;25.44;
39083;BME280;24834;44.444;26.098;2023-09-18T08:32:30;101313.53;;;25.93;
39083;BME280;24834;44.444;26.098;2023-09-18T08:38:36;101316.66;;;26.28;
39083;BME280;24834;44.444;26.098;2023-09-18T08:44:41;101304.78;;;26.32;
39083;BME280;24834;44.444;26.098;2023-09-18T08:50:48;101316.47;;;26.10;
39083;BME280;24834;44.444;26.098;2023-09-18T08:56:51;101301.97;;;25.89;
39083;BME280;24834;44.444;26.098;2023-09-18T09:02:54;101309.22;;;25.85;
39083;BME280;24834;44.444;26.098;2023-09-18T09:08:59;101304.31;;;26.27;
39083;BME280;24834;44.444;26.098;2023-09-18T09:15:02;101290.78;;;26.20;
39083;BME280;24834;44.444;26.098;2023-09-18T09:21:08;101283.22;;;26.80;
39083;BME280;24834;44.444;26.098;2023-09-18T09:27:10;101279.91;;;26.53;
39083;BME280;24834;44.444;26.098;2023-09-18T09:33:12;101275.31;;;27.04;
39083;BME280;24834;44.444;26.098;2023-09-18T09:39:15;101267.22;;;27.08;
39083;BME280;24834;44.444;26.098;2023-09-18T09:45:19;101265.44;;;27.29;
39083;BME280;24834;44.444;26.098;2023-09-18T09:51:21;101259.81;;;27.77;
39083;BME280;24834;44.444;26.098;2023-09-18T09:57:25;101254.06;;;27.92;
39083;BME280;24834;44.444;26.098;2023-09-18T10:03:29;101246.50;;;27.33;
39083;BME280;24834;44.444;26.098;2023-09-18T10:09:34;101244.88;;;27.18;
39083;BME280;24834;44.444;26.098;2023-09-18T10:15:38;101235.84;;;27.65;
39083;BME280;24834;44.444;26.098;2023-09-18T10:28:14;101228.16;;;27.77;
39083;BME280;24834;44.444;26.098;2023-09-18T10:34:18;101229.38;;;28.08;
39083;BME280;24834;44.444;26.098;2023-09-18T10:40:23;101220.13;;;28.12;
39083;BME280;24834;44.444;26.098;2023-09-18T10:46:29;101202.69;;;27.82;
39083;BME280;24834;44.444;26.098;2023-09-18T10:52:42;101204.28;;;28.22;
39083;BME280;24834;44.444;26.098;2023-09-18T10:58:55;101200.75;;;28.67;
39083;BME280;24834;44.444;26.098;2023-09-18T11:04:59;101186.38;;;28.91;
39083;BME280;24834;44.444;26.098;2023-09-18T11:11:09;101181.59;;;29.20;
39083;BME280;24834;44.444;26.098;2023-09-18T11:17:40;101176.41;;;28.56;
39083;BME280;24834;44.444;26.098;2023-09-18T11:23:44;101165.63;;;27.93;
39083;BME280;24834;44.444;26.098;2023-09-18T11:29:54;101162.09;;;27.85;
39083;BME280;24834;44.444;26.098;2023-09-18T11:36:28;101163.66;;;27.69;
39083;BME280;24834;44.444;26.098;2023-09-18T11:42:34;101161.66;;;27.48;
39083;BME280;24834;44.444;26.098;2023-09-18T11:48:41;101164.06;;;28.13;
39083;BME280;24834;44.444;26.098;2023-09-18T11:54:44;101146.31;;;28.12;
39083;BME280;24834;44.444;26.098;2023-09-18T12:00:50;101134.31;;;27.99;
39083;BME280;24834;44.444;26.098;2023-09-18T12:06:53;101138.19;;;27.77;
39083;BME280;24834;44.444;26.098;2023-09-18T12:12:57;101134.69;;;27.76;
39083;BME280;24834;44.444;26.098;2023-09-18T12:19:04;101129.25;;;27.48;
39083;BME280;24834;44.444;26.098;2023-09-18T12:25:14;101121.56;;;27.61;
39083;BME280;24834;44.444;26.098;2023-09-18T12:31:19;101124.66;;;28.05;
39083;BME280;24834;44.444;26.098;2023-09-18T12:37:25;101110.34;;;28.36;
39083;BME280;24834;44.444;26.098;2023-09-18T12:43:27;101115.25;;;28.69;
39083;BME280;24834;44.444;26.098;2023-09-18T12:49:33;101099.16;;;27.85;
39083;BME280;24834;44.444;26.098;2023-09-18T12:55:37;101095.28;;;27.47;
39083;BME280;24834;44.444;26.098;2023-09-18T13:01:46;101085.22;;;27.23;
39083;BME280;24834;44.444;26.098;2023-09-18T13:07:50;101086.75;;;27.49;
39083;BME280;24834;44.444;26.098;2023-09-18T13:13:57;101085.22;;;28.32;
39083;BME280;24834;44.444;26.098;2023-09-18T13:20:21;101063.16;;;28.44;
39083;BME280;24834;44.444;26.098;2023-09-18T13:26:28;101060.66;;;28.85;
39083;BME280;24834;44.444;26.098;2023-09-18T13:32:32;101054.09;;;28.82;
39083;BME280;24834;44.444;26.098;2023-09-18T13:38:38;101051.69;;;28.95;
39083;BME280;24834;44.444;26.098;2023-09-18T13:44:41;101062.75;;;28.49;
39083;BME280;24834;44.444;26.098;2023-09-18T13:50:44;101046.06;;;28.68;
39083;BME280;24834;44.444;26.098;2023-09-18T13:56:48;101042.59;;;28.61;
39083;BME280;24834;44.444;26.098;2023-09-18T14:02:51;101047.72;;;28.27;
39083;BME280;24834;44.444;26.098;2023-09-18T14:08:54;101041.13;;;28.42;
39083;BME280;24834;44.444;26.098;2023-09-18T14:14:58;101029.06;;;28.57;
39083;BME280;24834;44.444;26.098;2023-09-18T14:21:01;101024.84;;;28.53;
39083;BME280;24834;44.444;26.098;2023-09-18T14:27:04;101022.16;;;28.49;
39083;BME280;24834;44.444;26.098;2023-09-18T14:33:07;101009.44;;;28.36;
39083;BME280;24834;44.444;26.098;2023-09-18T14:39:11;101005.59;;;28.30;
39083;BME280;24834;44.444;26.098;2023-09-18T14:45:15;100993.66;;;28.13;
39083;BME280;24834;44.444;26.098;2023-09-18T14:51:22;100992.94;;;28.02;
39083;BME280;24834;44.444;26.098;2023-09-18T14:57:28;100999.13;;;27.92;
39083;BME280;24834;44.444;26.098;2023-09-18T15:03:30;100991.03;;;27.85;
39083;BME280;24834;44.444;26.098;2023-09-18T15:09:33;100997.22;;;27.78;
39083;BME280;24834;44.444;26.098;2023-09-18T15:15:39;101002.25;;;27.66;
39083;BME280;24834;44.444;26.098;2023-09-18T15:21:43;100998.00;;;27.44;
39083;BME280;24834;44.444;26.098;2023-09-18T15:27:46;100991.81;;;27.43;
39083;BME280;24834;44.444;26.098;2023-09-18T15:33:52;100989.13;;;27.25;
39083;BME280;24834;44.444;26.098;2023-09-18T15:39:57;100986.00;;;27.09;
39083;BME280;24834;44.444;26.098;2023-09-18T15:46:08;100989.44;;;26.89;
39083;BME280;24834;44.444;26.098;2023-09-18T15:52:11;100980.53;;;26.74;
39083;BME280;24834;44.444;26.098;2023-09-18T15:58:15;100977.00;;;26.60;
39083;BME280;24834;44.444;26.098;2023-09-18T16:04:19;100966.09;;;26.35;
39083;BME280;24834;44.444;26.098;2023-09-18T16:10:23;100962.16;;;26.22;
39083;BME280;24834;44.444;26.098;2023-09-18T16:16:25;100965.13;;;26.03;
39083;BME280;24834;44.444;26.098;2023-09-18T16:22:28;100965.44;;;25.91;
39083;BME280;24834;44.444;26.098;2023-09-18T16:28:30;100978.50;;;25.82;
39083;BME280;24834;44.444;26.098;2023-09-18T16:34:33;100965.66;;;25.64;
39083;BME280;24834;44.444;26.098;2023-09-18T16:40:36;100981.00;;;25.60;
39083;BME280;24834;44.444;26.098;2023-09-18T16:46:40;100985.94;;;25.51;
39083;BME280;24834;44.444;26.098;2023-09-18T16:52:42;100987.78;;;25.44;
39083;BME280;24834;44.444;26.098;2023-09-18T16:58:48;100998.53;;;25.40;
39083;BME280;24834;44.444;26.098;2023-09-18T17:04:50;101003.78;;;25.30;
39083;BME280;24834;44.444;26.098;2023-09-18T17:10:53;101008.28;;;25.19;
39083;BME280;24834;44.444;26.098;2023-09-18T17:16:56;101008.91;;;25.05;
39083;BME280;24834;44.444;26.098;2023-09-18T17:22:59;101015.72;;;24.95;
39083;BME280;24834;44.444;26.098;2023-09-18T17:29:02;101015.28;;;24.90;
39083;BME280;24834;44.444;26.098;2023-09-18T17:35:05;101021.66;;;24.78;
39083;BME280;24834;44.444;26.098;2023-09-18T17:41:08;101026.19;;;24.71;
39083;BME280;24834;44.444;26.098;2023-09-18T17:47:11;101031.41;;;24.57;
39083;BME280;24834;44.444;26.098;2023-09-18T17:53:23;101033.13;;;24.46;
39083;BME280;24834;44.444;26.098;2023-09-18T17:59:26;101035.66;;;24.35;
39083;BME280;24834;44.444;26.098;2023-09-18T18:05:30;101038.53;;;24.23;
39083;BME280;24834;44.444;26.098;2023-09-18T18:11:34;101038.88;;;24.18;
39083;BME280;24834;44.444;26.098;2023-09-18T18:17:38;101046.78;;;24.07;
39083;BME280;24834;44.444;26.098;2023-09-18T18:23:40;101031.59;;;23.96;
39083;BME280;24834;44.444;26.098;2023-09-18T18:29:44;101038.75;;;23.88;
39083;BME280;24834;44.444;26.098;2023-09-18T18:35:47;101052.88;;;23.85;
39083;BME280;24834;44.444;26.098;2023-09-18T18:41:50;101049.66;;;23.76;
39083;BME280;24834;44.444;26.098;2023-09-18T18:47:54;101053.38;;;23.68;
39083;BME280;24834;44.444;26.098;2023-09-18T18:53:59;101051.38;;;23.65;
39083;BME280;24834;44.444;26.098;2023-09-18T19:00:06;101049.66;;;23.54;
39083;BME280;24834;44.444;26.098;2023-09-18T19:06:13;101062.94;;;23.46;
39083;BME280;24834;44.444;26.098;2023-09-18T19:12:16;101065.53;;;23.43;
39083;BME280;24834;44.444;26.098;2023-09-18T19:18:19;101074.59;;;23.35;
39083;BME280;24834;44.444;26.098;2023-09-18T19:24:22;101074.09;;;23.29;
39083;BME280;24834;44.444;26.098;2023-09-18T19:30:24;101060.38;;;23.15;
39083;BME280;24834;44.444;26.098;2023-09-18T19:36:26;101072.00;;;23.04;
39083;BME280;24834;44.444;26.098;2023-09-18T19:42:31;101068.44;;;23.00;
39083;BME280;24834;44.444;26.098;2023-09-18T19:48:33;101079.06;;;22.93;
39083;BME280;24834;44.444;26.098;2023-09-18T19:54:36;101068.31;;;22.93;
39083;BME280;24834;44.444;26.098;2023-09-18T20:00:38;101072.66;;;22.82;
39083;BME280;24834;44.444;26.098;2023-09-18T20:06:40;101074.06;;;22.75;
39083;BME280;24834;44.444;26.098;2023-09-18T20:12:48;101070.88;;;22.70;
39083;BME280;24834;44.444;26.098;2023-09-18T20:18:51;101069.84;;;22.59;
39083;BME280;24834;44.444;26.098;2023-09-18T20:24:54;101075.13;;;22.55;
39083;BME280;24834;44.444;26.098;2023-09-18T20:30:57;101087.16;;;22.46;
39083;BME280;24834;44.444;26.098;2023-09-18T20:36:59;101081.97;;;22.37;
39083;BME280;24834;44.444;26.098;2023-09-18T20:43:02;101078.19;;;22.38;
39083;BME280;24834;44.444;26.098;2023-09-18T20:49:06;101075.97;;;22.28;
39083;BME280;24834;44.444;26.098;2023-09-18T20:55:09;101074.34;;;22.24;
39083;BME280;24834;44.444;26.098;2023-09-18T21:01:13;101074.78;;;22.10;
39083;BME280;24834;44.444;26.098;2023-09-18T21:07:16;101084.63;;;22.06;
39083;BME280;24834;44.444;26.098;2023-09-18T21:13:19;101084.56;;;21.90;
39083;BME280;24834;44.444;26.098;2023-09-18T21:19:21;101079.81;;;21.84;
39083;BME280;24834;44.444;26.098;2023-09-18T21:25:23;101066.91;;;21.74;
39083;BME280;24834;44.444;26.098;2023-09-18T21:31:26;101071.63;;;21.77;
39083;BME280;24834;44.444;26.098;2023-09-18T21:37:28;101069.88;;;21.69;
39083;BME280;24834;44.444;26.098;2023-09-18T21:43:32;101061.47;;;21.70;
39083;BME280;24834;44.444;26.098;2023-09-18T21:49:35;101065.38;;;21.73;
39083;BME280;24834;44.444;26.098;2023-09-18T21:55:44;101055.94;;;21.63;
39083;BME280;24834;44.444;26.098;2023-09-18T22:01:46;101055.06;;;21.59;
39083;BME280;24834;44.444;26.098;2023-09-18T22:07:49;101065.22;;;21.54;
39083;BME280;24834;44.444;26.098;2023-09-18T22:13:52;101062.56;;;21.54;
39083;BME280;24834;44.444;26.098;2023-09-18T22:19:55;101062.56;;;21.54;
39083;BME280;24834;44.444;26.098;2023-09-18T22:25:58;101051.84;;;21.41;
39083;BME280;24834;44.444;26.098;2023-09-18T22:32:01;101042.97;;;21.37;
39083;BME280;24834;44.444;26.098;2023-09-18T22:38:13;101049.59;;;21.28;
39083;BME280;24834;44.444;26.098;2023-09-18T22:57:45;101053.94;;;21.20;
39083;BME280;24834;44.444;26.098;2023-09-18T23:03:48;101054.84;;;21.12;
39083;BME280;24834;44.444;26.098;2023-09-18T23:09:51;101055.94;;;21.11;
39083;BME280;24834;44.444;26.098;2023-09-18T23:15:55;101045.59;;;21.10;
39083;BME280;24834;44.444;26.098;2023-09-18T23:21:57;101038.94;;;21.04;
39083;BME280;24834;44.444;26.098;2023-09-18T23:28:02;101042.28;;;21.01;
39083;BME280;24834;44.444;26.098;2023-09-18T23:34:05;101046.19;;;21.03;
39083;BME280;24834;44.444;26.098;2023-09-18T23:40:10;101049.44;;;20.97;
39083;BME280;24834;44.444;26.098;2023-09-18T23:46:17;101043.63;;;20.95;
39083;BME280;24834;44.444;26.098;2023-09-18T23:52:22;101051.75;;;20.98;
39083;BME280;24834;44.444;26.098;2023-09-18T23:58:26;101053.91;;;20.93;
